Impacts METAR Board
IDs:

KERV - Kerrville Muni, TX, US

Updated at: 2300 UTC 29 May 2020
Potential Impact None Slight Moderate High
Time 29/11Z 29/12Z 29/13Z 29/14Z 29/15Z 29/16Z 29/17Z 29/18Z 29/19Z 29/20Z 29/21Z 29/22Z 29/23Z
Temp62 61 63 71 75 76 79 80 82 83 82 83 82
Dewpt59 59 60 68 66 66 65 63 62 58 59 57 54
Altim30.10 30.13 30.16 30.17 30.18 30.18 30.19 30.16 30.17 30.17 30.16 30.14 30.14
VIS10 10 10 10 10 10 10 10 10 10 10 10 10
CIG-- -- -- -- -- -- -- -- -- -- -- -- --
CoverCLRCLRCLRCLRCLRSCTSCTCLRCLRCLRSCTCLRCLR
FltCatVFRVFRVFRVFRVFRVFRVFRVFRVFRVFRVFRVFRVFR
WX--------------------------
WDir3303303303201040360203030305050
WSpd4 5 3 3 6 7 8 8 11 10 9 10 6
WGst-- -- -- -- -- -- -- 15 17 14 14 17 --
Raw hourly METARs
KERV 291055Z AUTO 33004KT 10SM CLR 17/15 A3010 RMK AO2 T01650152
KERV 291155Z AUTO 33005KT 10SM CLR 16/15 A3013 RMK AO2 70105 T01630150 10176 20162
KERV 291255Z AUTO 33003KT 10SM CLR 17/16 A3016 RMK AO2 T01700155
KERV 291355Z AUTO 32003KT 10SM CLR 22/20 A3017 RMK AO2 T02170198
KERV 291455Z AUTO 01006KT 10SM CLR 24/19 A3018 RMK AO2 T02390191
KERV 291555Z AUTO 04007KT 10SM SCT029 24/19 A3018 RMK AO2 T02430188
KERV 291655Z AUTO 36008KT 10SM SCT035 26/18 A3019 RMK AO2 T02590182
KERV 291755Z AUTO 02008G15KT 10SM CLR 27/17 A3016 RMK AO2 T02650170 10265 20163
KERV 291855Z AUTO 03011G17KT 10SM CLR 28/16 A3017 RMK AO2 T02760164
KERV 291955Z AUTO 03010G14KT 10SM CLR 28/14 A3017 RMK AO2 T02810143
KERV 292055Z AUTO 03009G14KT 350V080 10SM SCT065 28/15 A3016 RMK AO2 T02800150
KERV 292155Z AUTO 05010G17KT 10SM CLR 28/14 A3014 RMK AO2 T02820137
KERV 292255Z AUTO 05006KT 10SM CLR 28/12 A3014 RMK AO2 T02760123